PST: 10:19 MST: 11:19 CST: 12:19 EST: 13:19 LDN: 18:19 UTC: 17:19
User Agent: CCBot/2.0 (http://commoncrawl.org/faq/)
IP Address: 54.159.113.182
Hostname: ec2-54-159-113-182.compute-1.amazonaws.com

METAR:
KBFI 241653Z 00000KT 10SM BKN250 14/11 A3016 RMK AO2 SLP211 T01440111
KBFI 241553Z 00000KT 10SM FEW030 SCT130 13/10 A3017 RMK AO2 SLP215 T01280100
KBFI 241453Z 13003KT 10SM SCT200 11/09 A3016 RMK AO2 SLP212 T01060094 51003
KBFI 241353Z 14006KT 10SM SCT200 09/08 A3016 RMK AO2 SLP211 T00940083

TAF:
KBFI 241434Z 2415/2512 14004KT P6SM FEW120 BKN200
FM 241800 22005KT P6SM SCT100 BKN200
FM 250000 28005KT P6SM SCT050 BKN100 BKN200
FM 250600 VRB04KT P6SM BKN050 BKN100

KBFI 241120Z 2412/2512 18003KT P6SM FEW150 SCT200 TEMPO 2414/2418 SCT014
FM 241800 22005KT P6SM SCT100 BKN200
FM 250000 28005KT P6SM SCT050 BKN100 BKN200
FM 250600 VRB04KT P6SM BKN050 BKN100

KBFI 240520Z 2406/2506 VRB03KT P6SM FEW100
FM 241200 VRB03KT P6SM SCT015 SCT100 TEMPO 2414/2418 BKN015
FM 241800 20004KT P6SM SCT050 OVC100
FM 250000 24005KT P6SM BKN050 OVC100

KBFI 232332Z 2400/2424 31004KT P6SM FEW035 SCT100 BKN200
FM 240200 VRB02KT P6SM BKN100 BKN200
FM 241200 VRB02KT P6SM SCT015 OVC100 TEMPO 2414/2418 BKN015 OVC100
FM 241800 VRB04KT P6SM SCT050 OVC100

KBFI 232107Z 2321/2418 20004KT P6SM FEW028 BKN200
FM 232300 28004KT P6SM FEW035 BKN200
FM 240200 VRB02KT P6SM SCT100 BKN200
FM 241200 VRB02KT P6SM FEW015 BKN100 OVC200

KBFI 231758Z 2318/2418 20004KT P6SM SCT025 SCT090 TEMPO 2318/2320 BKN025 BKN090
FM 232000 20004KT P6SM FEW035 BKN100
FM 232300 30004KT P6SM SCT100 SCT200
FM 240200 VRB02KT P6SM SCT100 BKN200
FM 241200 VRB02KT P6SM FEW015 BKN100 OVC200

KBFI 231731Z 2318/2418 15004KT P6SM SCT025 BKN080
FM 232000 20004KT P6SM FEW035 BKN100
FM 232300 30004KT P6SM SCT100 SCT200
FM 240200 VRB02KT P6SM SCT100 BKN200
FM 241200 VRB02KT P6SM FEW015 BKN100 OVC200